sensor_id;sensor_type;location;lat;lon;timestamp;temperature;humidity
53695;DHT22;39588;51.124;7.190;2024-03-08T00:00:14;2.50;94.80
53695;DHT22;39588;51.124;7.190;2024-03-08T00:02:42;2.50;94.90
53695;DHT22;39588;51.124;7.190;2024-03-08T00:07:35;2.50;94.80
53695;DHT22;39588;51.124;7.190;2024-03-08T00:10:06;2.50;94.90
53695;DHT22;39588;51.124;7.190;2024-03-08T00:17:24;2.40;95.00
53695;DHT22;39588;51.124;7.190;2024-03-08T00:22:19;2.40;94.90
53695;DHT22;39588;51.124;7.190;2024-03-08T00:24:44;2.40;95.00
53695;DHT22;39588;51.124;7.190;2024-03-08T00:27:11;2.40;95.10
53695;DHT22;39588;51.124;7.190;2024-03-08T00:34:35;2.30;95.00
53695;DHT22;39588;51.124;7.190;2024-03-08T00:39:28;2.30;95.00
53695;DHT22;39588;51.124;7.190;2024-03-08T01:03:50;2.10;95.20
53695;DHT22;39588;51.124;7.190;2024-03-08T01:08:41;2.10;95.30
53695;DHT22;39588;51.124;7.190;2024-03-08T01:13:34;2.10;95.50
53695;DHT22;39588;51.124;7.190;2024-03-08T01:18:26;2.00;95.60
53695;DHT22;39588;51.124;7.190;2024-03-08T01:23:18;2.00;95.60
53695;DHT22;39588;51.124;7.190;2024-03-08T01:33:03;2.00;95.70
53695;DHT22;39588;51.124;7.190;2024-03-08T01:35:29;2.00;95.70
53695;DHT22;39588;51.124;7.190;2024-03-08T01:37:54;2.00;95.70
53695;DHT22;39588;51.124;7.190;2024-03-08T01:42:46;2.00;95.90
53695;DHT22;39588;51.124;7.190;2024-03-08T01:45:13;2.00;95.90
53695;DHT22;39588;51.124;7.190;2024-03-08T01:47:39;2.00;95.80
53695;DHT22;39588;51.124;7.190;2024-03-08T01:50:05;2.00;95.80
53695;DHT22;39588;51.124;7.190;2024-03-08T01:59:59;2.00;95.90
53695;DHT22;39588;51.124;7.190;2024-03-08T02:02:30;2.00;95.90
53695;DHT22;39588;51.124;7.190;2024-03-08T02:14:42;2.00;96.00
53695;DHT22;39588;51.124;7.190;2024-03-08T02:22:03;1.90;95.80
53695;DHT22;39588;51.124;7.190;2024-03-08T02:29:22;1.90;95.80
53695;DHT22;39588;51.124;7.190;2024-03-08T02:31:51;2.00;95.80
53695;DHT22;39588;51.124;7.190;2024-03-08T02:48:55;1.90;95.60
53695;DHT22;39588;51.124;7.190;2024-03-08T02:53:47;1.90;95.70
53695;DHT22;39588;51.124;7.190;2024-03-08T02:56:14;1.90;95.70
53695;DHT22;39588;51.124;7.190;2024-03-08T02:58:42;1.90;95.70
53695;DHT22;39588;51.124;7.190;2024-03-08T03:01:10;1.90;95.70
53695;DHT22;39588;51.124;7.190;2024-03-08T03:03:36;1.90;95.60
53695;DHT22;39588;51.124;7.190;2024-03-08T03:10:54;1.90;95.60
53695;DHT22;39588;51.124;7.190;2024-03-08T03:15:48;1.90;95.50
53695;DHT22;39588;51.124;7.190;2024-03-08T03:18:14;1.90;95.70
53695;DHT22;39588;51.124;7.190;2024-03-08T03:20:41;1.90;95.60
53695;DHT22;39588;51.124;7.190;2024-03-08T03:25:35;1.90;95.60
53695;DHT22;39588;51.124;7.190;2024-03-08T03:28:01;1.90;95.60
53695;DHT22;39588;51.124;7.190;2024-03-08T03:30:27;1.90;95.70
53695;DHT22;39588;51.124;7.190;2024-03-08T03:52:38;1.80;95.70
53695;DHT22;39588;51.124;7.190;2024-03-08T03:55:05;1.70;95.70
53695;DHT22;39588;51.124;7.190;2024-03-08T04:02:28;1.80;95.80
53695;DHT22;39588;51.124;7.190;2024-03-08T04:04:53;1.80;95.70
53695;DHT22;39588;51.124;7.190;2024-03-08T04:09:46;1.80;95.80
53695;DHT22;39588;51.124;7.190;2024-03-08T04:12:12;1.80;95.70
53695;DHT22;39588;51.124;7.190;2024-03-08T04:14:40;1.80;95.80
53695;DHT22;39588;51.124;7.190;2024-03-08T04:17:06;1.80;96.00
53695;DHT22;39588;51.124;7.190;2024-03-08T04:19:34;1.70;95.90
53695;DHT22;39588;51.124;7.190;2024-03-08T04:22:00;1.70;95.90
53695;DHT22;39588;51.124;7.190;2024-03-08T04:26:52;1.70;96.00
53695;DHT22;39588;51.124;7.190;2024-03-08T04:29:18;1.70;96.00
53695;DHT22;39588;51.124;7.190;2024-03-08T04:31:44;1.80;96.10
53695;DHT22;39588;51.124;7.190;2024-03-08T04:43:56;1.70;96.10
53695;DHT22;39588;51.124;7.190;2024-03-08T04:48:49;1.70;96.10
53695;DHT22;39588;51.124;7.190;2024-03-08T04:58:36;1.70;96.00
53695;DHT22;39588;51.124;7.190;2024-03-08T05:03:28;1.70;96.10
53695;DHT22;39588;51.124;7.190;2024-03-08T05:20:36;1.70;96.30
53695;DHT22;39588;51.124;7.190;2024-03-08T05:23:02;1.70;96.20
53695;DHT22;39588;51.124;7.190;2024-03-08T05:25:28;1.70;96.30
53695;DHT22;39588;51.124;7.190;2024-03-08T05:30:21;1.70;96.30
53695;DHT22;39588;51.124;7.190;2024-03-08T05:32:47;1.60;96.20
53695;DHT22;39588;51.124;7.190;2024-03-08T05:35:12;1.60;96.20
53695;DHT22;39588;51.124;7.190;2024-03-08T05:42:35;1.60;96.30
53695;DHT22;39588;51.124;7.190;2024-03-08T05:45:02;1.60;96.40
53695;DHT22;39588;51.124;7.190;2024-03-08T05:47:28;1.50;96.40
53695;DHT22;39588;51.124;7.190;2024-03-08T05:49:54;1.50;96.40
53695;DHT22;39588;51.124;7.190;2024-03-08T05:54:46;1.50;96.60
53695;DHT22;39588;51.124;7.190;2024-03-08T05:57:12;1.50;96.50
53695;DHT22;39588;51.124;7.190;2024-03-08T06:11:51;1.60;96.60
53695;DHT22;39588;51.124;7.190;2024-03-08T06:14:16;1.60;96.70
53695;DHT22;39588;51.124;7.190;2024-03-08T06:16:44;1.70;96.70
53695;DHT22;39588;51.124;7.190;2024-03-08T06:19:10;1.70;96.80
53695;DHT22;39588;51.124;7.190;2024-03-08T06:24:03;1.70;96.80
53695;DHT22;39588;51.124;7.190;2024-03-08T06:26:29;1.70;96.70
53695;DHT22;39588;51.124;7.190;2024-03-08T06:28:55;1.70;96.80
53695;DHT22;39588;51.124;7.190;2024-03-08T06:31:21;1.70;96.80
53695;DHT22;39588;51.124;7.190;2024-03-08T06:33:47;1.70;96.90
53695;DHT22;39588;51.124;7.190;2024-03-08T06:36:16;1.70;96.80
53695;DHT22;39588;51.124;7.190;2024-03-08T06:41:11;1.80;97.00
53695;DHT22;39588;51.124;7.190;2024-03-08T06:43:47;1.80;96.80
53695;DHT22;39588;51.124;7.190;2024-03-08T06:46:15;1.90;96.90
53695;DHT22;39588;51.124;7.190;2024-03-08T06:56:01;2.10;96.90
53695;DHT22;39588;51.124;7.190;2024-03-08T07:00:53;2.20;96.90
53695;DHT22;39588;51.124;7.190;2024-03-08T07:03:20;2.30;97.00
53695;DHT22;39588;51.124;7.190;2024-03-08T07:13:10;2.60;96.70
53695;DHT22;39588;51.124;7.190;2024-03-08T07:18:02;2.70;96.50
53695;DHT22;39588;51.124;7.190;2024-03-08T07:20:28;2.80;96.60
53695;DHT22;39588;51.124;7.190;2024-03-08T07:25:20;3.00;96.60
53695;DHT22;39588;51.124;7.190;2024-03-08T07:27:54;3.00;96.50
53695;DHT22;39588;51.124;7.190;2024-03-08T07:30:27;3.10;96.40
53695;DHT22;39588;51.124;7.190;2024-03-08T07:33:12;3.20;96.20
53695;DHT22;39588;51.124;7.190;2024-03-08T07:35:38;3.30;96.40
53695;DHT22;39588;51.124;7.190;2024-03-08T07:38:05;3.30;96.20
53695;DHT22;39588;51.124;7.190;2024-03-08T07:45:24;3.60;96.10
53695;DHT22;39588;51.124;7.190;2024-03-08T07:47:52;3.70;96.10
53695;DHT22;39588;51.124;7.190;2024-03-08T07:50:18;3.70;95.80
53695;DHT22;39588;51.124;7.190;2024-03-08T07:52:44;3.80;95.90
53695;DHT22;39588;51.124;7.190;2024-03-08T07:57:37;3.90;95.60
53695;DHT22;39588;51.124;7.190;2024-03-08T08:00:06;4.00;95.70
53695;DHT22;39588;51.124;7.190;2024-03-08T08:05:00;4.20;95.40
53695;DHT22;39588;51.124;7.190;2024-03-08T08:07:26;4.30;95.40
53695;DHT22;39588;51.124;7.190;2024-03-08T08:09:53;4.40;95.20
53695;DHT22;39588;51.124;7.190;2024-03-08T08:12:18;4.40;95.40
53695;DHT22;39588;51.124;7.190;2024-03-08T08:14:44;4.50;95.20
53695;DHT22;39588;51.124;7.190;2024-03-08T08:19:37;4.70;94.90
53695;DHT22;39588;51.124;7.190;2024-03-08T08:22:04;4.80;95.00
53695;DHT22;39588;51.124;7.190;2024-03-08T08:24:29;4.80;94.80
53695;DHT22;39588;51.124;7.190;2024-03-08T08:29:21;5.10;94.50
53695;DHT22;39588;51.124;7.190;2024-03-08T08:31:48;5.10;94.30
53695;DHT22;39588;51.124;7.190;2024-03-08T08:34:16;5.20;94.40
53695;DHT22;39588;51.124;7.190;2024-03-08T08:36:42;5.20;94.20
53695;DHT22;39588;51.124;7.190;2024-03-08T08:39:08;5.20;94.10
53695;DHT22;39588;51.124;7.190;2024-03-08T08:44:07;5.30;94.40
53695;DHT22;39588;51.124;7.190;2024-03-08T08:46:36;5.50;94.20
53695;DHT22;39588;51.124;7.190;2024-03-08T09:01:14;5.90;94.00
53695;DHT22;39588;51.124;7.190;2024-03-08T09:03:40;6.00;93.50
53695;DHT22;39588;51.124;7.190;2024-03-08T09:06:09;6.00;93.30
53695;DHT22;39588;51.124;7.190;2024-03-08T09:08:38;5.90;93.30
53695;DHT22;39588;51.124;7.190;2024-03-08T09:11:04;6.00;93.90
53695;DHT22;39588;51.124;7.190;2024-03-08T09:15:56;6.30;93.50
53695;DHT22;39588;51.124;7.190;2024-03-08T09:18:22;6.30;93.40
53695;DHT22;39588;51.124;7.190;2024-03-08T09:20:49;6.50;93.40
53695;DHT22;39588;51.124;7.190;2024-03-08T09:23:15;6.70;93.50
53695;DHT22;39588;51.124;7.190;2024-03-08T09:28:09;6.70;93.00
53695;DHT22;39588;51.124;7.190;2024-03-08T09:30:37;6.70;92.80
53695;DHT22;39588;51.124;7.190;2024-03-08T09:33:04;6.80;92.90
53695;DHT22;39588;51.124;7.190;2024-03-08T09:35:29;6.80;92.80
53695;DHT22;39588;51.124;7.190;2024-03-08T09:37:55;6.90;92.60
53695;DHT22;39588;51.124;7.190;2024-03-08T09:40:21;6.90;92.50
53695;DHT22;39588;51.124;7.190;2024-03-08T09:42:49;6.80;92.40
53695;DHT22;39588;51.124;7.190;2024-03-08T09:45:17;6.80;92.70
53695;DHT22;39588;51.124;7.190;2024-03-08T09:47:43;6.90;92.40
53695;DHT22;39588;51.124;7.190;2024-03-08T09:50:10;7.00;92.80
53695;DHT22;39588;51.124;7.190;2024-03-08T09:52:38;7.10;92.20
53695;DHT22;39588;51.124;7.190;2024-03-08T09:55:08;7.20;92.40
53695;DHT22;39588;51.124;7.190;2024-03-08T09:57:37;7.20;92.00
53695;DHT22;39588;51.124;7.190;2024-03-08T10:00:04;7.20;91.70
53695;DHT22;39588;51.124;7.190;2024-03-08T10:02:45;7.10;91.70
53695;DHT22;39588;51.124;7.190;2024-03-08T10:05:12;7.10;91.80
53695;DHT22;39588;51.124;7.190;2024-03-08T10:07:38;7.10;91.70
53695;DHT22;39588;51.124;7.190;2024-03-08T10:10:04;7.10;91.80
53695;DHT22;39588;51.124;7.190;2024-03-08T10:12:29;7.30;91.90
53695;DHT22;39588;51.124;7.190;2024-03-08T10:14:58;7.40;91.60
53695;DHT22;39588;51.124;7.190;2024-03-08T10:19:51;7.50;91.30
53695;DHT22;39588;51.124;7.190;2024-03-08T10:22:19;7.50;90.80
53695;DHT22;39588;51.124;7.190;2024-03-08T10:24:46;7.60;91.30
53695;DHT22;39588;51.124;7.190;2024-03-08T10:27:12;7.70;90.70
53695;DHT22;39588;51.124;7.190;2024-03-08T10:37:04;7.90;90.60
53695;DHT22;39588;51.124;7.190;2024-03-08T10:39:35;8.00;90.50
53695;DHT22;39588;51.124;7.190;2024-03-08T10:42:03;8.00;90.00
53695;DHT22;39588;51.124;7.190;2024-03-08T10:47:05;8.00;89.90
53695;DHT22;39588;51.124;7.190;2024-03-08T10:49:41;8.10;89.90
53695;DHT22;39588;51.124;7.190;2024-03-08T10:52:11;8.10;89.20
53695;DHT22;39588;51.124;7.190;2024-03-08T10:54:39;8.10;89.60
53695;DHT22;39588;51.124;7.190;2024-03-08T10:57:06;8.30;89.00
53695;DHT22;39588;51.124;7.190;2024-03-08T10:59:34;8.30;88.70
53695;DHT22;39588;51.124;7.190;2024-03-08T11:02:00;8.30;87.30
53695;DHT22;39588;51.124;7.190;2024-03-08T11:04:26;8.30;87.30
53695;DHT22;39588;51.124;7.190;2024-03-08T11:07:03;8.40;90.00
53695;DHT22;39588;51.124;7.190;2024-03-08T11:09:32;8.40;87.70
53695;DHT22;39588;51.124;7.190;2024-03-08T11:14:48;8.40;86.30
53695;DHT22;39588;51.124;7.190;2024-03-08T11:20:14;8.60;86.80
53695;DHT22;39588;51.124;7.190;2024-03-08T11:22:59;8.70;85.40
53695;DHT22;39588;51.124;7.190;2024-03-08T11:28:20;8.80;84.80
53695;DHT22;39588;51.124;7.190;2024-03-08T11:33:36;8.80;85.30
53695;DHT22;39588;51.124;7.190;2024-03-08T11:36:14;8.80;85.20
53695;DHT22;39588;51.124;7.190;2024-03-08T11:38:47;8.90;84.30
53695;DHT22;39588;51.124;7.190;2024-03-08T11:41:19;8.90;84.40
53695;DHT22;39588;51.124;7.190;2024-03-08T11:43:49;9.00;85.40
53695;DHT22;39588;51.124;7.190;2024-03-08T11:46:17;9.10;86.30
53695;DHT22;39588;51.124;7.190;2024-03-08T11:48:44;9.20;83.90
53695;DHT22;39588;51.124;7.190;2024-03-08T11:51:14;9.20;83.90
53695;DHT22;39588;51.124;7.190;2024-03-08T11:53:40;9.20;83.00
53695;DHT22;39588;51.124;7.190;2024-03-08T11:56:08;9.30;82.80
53695;DHT22;39588;51.124;7.190;2024-03-08T11:58:34;9.40;82.90
53695;DHT22;39588;51.124;7.190;2024-03-08T12:01:09;9.40;83.80
53695;DHT22;39588;51.124;7.190;2024-03-08T12:03:38;9.30;82.10
53695;DHT22;39588;51.124;7.190;2024-03-08T12:06:04;9.30;81.50
53695;DHT22;39588;51.124;7.190;2024-03-08T12:08:33;9.40;80.80
53695;DHT22;39588;51.124;7.190;2024-03-08T12:10:58;9.30;80.30
53695;DHT22;39588;51.124;7.190;2024-03-08T12:13:31;9.20;80.30
53695;DHT22;39588;51.124;7.190;2024-03-08T12:16:06;9.20;80.20
53695;DHT22;39588;51.124;7.190;2024-03-08T12:18:37;9.30;79.80
53695;DHT22;39588;51.124;7.190;2024-03-08T12:21:06;9.40;81.30
53695;DHT22;39588;51.124;7.190;2024-03-08T12:23:47;9.40;79.70
53695;DHT22;39588;51.124;7.190;2024-03-08T12:26:24;9.40;80.20
53695;DHT22;39588;51.124;7.190;2024-03-08T12:28:51;9.50;81.30
53695;DHT22;39588;51.124;7.190;2024-03-08T12:33:49;9.50;79.70
53695;DHT22;39588;51.124;7.190;2024-03-08T12:36:16;9.50;78.60
53695;DHT22;39588;51.124;7.190;2024-03-08T12:38:48;9.50;79.30
53695;DHT22;39588;51.124;7.190;2024-03-08T12:41:19;9.50;78.30
53695;DHT22;39588;51.124;7.190;2024-03-08T12:43:48;9.50;78.50
53695;DHT22;39588;51.124;7.190;2024-03-08T12:46:21;9.60;77.80
53695;DHT22;39588;51.124;7.190;2024-03-08T12:51:49;9.60;80.60
53695;DHT22;39588;51.124;7.190;2024-03-08T12:54:19;9.80;80.70
53695;DHT22;39588;51.124;7.190;2024-03-08T12:59:56;9.80;77.90
53695;DHT22;39588;51.124;7.190;2024-03-08T13:02:22;9.70;77.10
53695;DHT22;39588;51.124;7.190;2024-03-08T13:04:49;9.70;76.50
53695;DHT22;39588;51.124;7.190;2024-03-08T13:07:25;9.60;76.60
53695;DHT22;39588;51.124;7.190;2024-03-08T13:09:54;9.60;78.00
53695;DHT22;39588;51.124;7.190;2024-03-08T13:12:21;9.60;77.10
53695;DHT22;39588;51.124;7.190;2024-03-08T13:14:47;9.70;76.50
53695;DHT22;39588;51.124;7.190;2024-03-08T13:17:14;9.60;75.60
53695;DHT22;39588;51.124;7.190;2024-03-08T13:19:40;9.60;76.50
53695;DHT22;39588;51.124;7.190;2024-03-08T13:22:07;9.60;77.80
53695;DHT22;39588;51.124;7.190;2024-03-08T13:24:37;9.50;77.60
53695;DHT22;39588;51.124;7.190;2024-03-08T13:27:03;9.60;78.80
53695;DHT22;39588;51.124;7.190;2024-03-08T13:29:42;9.60;77.30
53695;DHT22;39588;51.124;7.190;2024-03-08T13:34:40;9.70;76.20
53695;DHT22;39588;51.124;7.190;2024-03-08T13:37:06;9.70;76.10
53695;DHT22;39588;51.124;7.190;2024-03-08T13:39:32;9.60;76.30
53695;DHT22;39588;51.124;7.190;2024-03-08T13:42:07;9.60;75.70
53695;DHT22;39588;51.124;7.190;2024-03-08T13:44:35;9.60;77.00
53695;DHT22;39588;51.124;7.190;2024-03-08T13:47:02;9.70;76.20
53695;DHT22;39588;51.124;7.190;2024-03-08T13:49:30;9.80;75.60
53695;DHT22;39588;51.124;7.190;2024-03-08T13:51:56;9.80;77.30
53695;DHT22;39588;51.124;7.190;2024-03-08T13:54:24;9.70;76.20
53695;DHT22;39588;51.124;7.190;2024-03-08T13:56:50;9.80;75.90
53695;DHT22;39588;51.124;7.190;2024-03-08T13:59:20;9.70;76.90
53695;DHT22;39588;51.124;7.190;2024-03-08T14:04:16;9.70;75.30
53695;DHT22;39588;51.124;7.190;2024-03-08T14:06:45;9.70;78.20
53695;DHT22;39588;51.124;7.190;2024-03-08T14:09:13;9.70;77.00
53695;DHT22;39588;51.124;7.190;2024-03-08T14:11:45;9.70;77.10
53695;DHT22;39588;51.124;7.190;2024-03-08T14:14:11;9.70;76.00
53695;DHT22;39588;51.124;7.190;2024-03-08T14:16:39;9.80;76.70
53695;DHT22;39588;51.124;7.190;2024-03-08T14:19:05;9.80;76.30
53695;DHT22;39588;51.124;7.190;2024-03-08T14:21:34;9.70;78.20
53695;DHT22;39588;51.124;7.190;2024-03-08T14:23:59;9.70;76.90
53695;DHT22;39588;51.124;7.190;2024-03-08T14:26:25;9.60;77.50
53695;DHT22;39588;51.124;7.190;2024-03-08T14:28:51;9.70;77.20
53695;DHT22;39588;51.124;7.190;2024-03-08T14:31:20;9.60;77.50
53695;DHT22;39588;51.124;7.190;2024-03-08T14:33:46;9.60;77.50
53695;DHT22;39588;51.124;7.190;2024-03-08T14:38:42;9.60;77.20
53695;DHT22;39588;51.124;7.190;2024-03-08T14:41:08;9.60;77.30
53695;DHT22;39588;51.124;7.190;2024-03-08T14:43:34;9.60;78.10
53695;DHT22;39588;51.124;7.190;2024-03-08T14:46:00;9.60;76.90
53695;DHT22;39588;51.124;7.190;2024-03-08T14:55:44;9.60;76.10
53695;DHT22;39588;51.124;7.190;2024-03-08T14:58:12;9.60;75.90
53695;DHT22;39588;51.124;7.190;2024-03-08T15:00:38;9.50;76.60
53695;DHT22;39588;51.124;7.190;2024-03-08T15:03:05;9.50;77.30
53695;DHT22;39588;51.124;7.190;2024-03-08T15:05:35;9.50;76.60
53695;DHT22;39588;51.124;7.190;2024-03-08T15:08:05;9.50;76.60
53695;DHT22;39588;51.124;7.190;2024-03-08T15:10:35;9.50;76.60
53695;DHT22;39588;51.124;7.190;2024-03-08T15:13:01;9.50;76.70
53695;DHT22;39588;51.124;7.190;2024-03-08T15:15:33;9.50;77.60
53695;DHT22;39588;51.124;7.190;2024-03-08T15:22:54;9.40;78.00
53695;DHT22;39588;51.124;7.190;2024-03-08T15:25:23;9.40;77.70
53695;DHT22;39588;51.124;7.190;2024-03-08T15:27:53;9.30;78.00
53695;DHT22;39588;51.124;7.190;2024-03-08T15:30:19;9.30;78.00
53695;DHT22;39588;51.124;7.190;2024-03-08T15:32:48;9.20;78.10
53695;DHT22;39588;51.124;7.190;2024-03-08T15:35:16;9.20;77.90
53695;DHT22;39588;51.124;7.190;2024-03-08T15:37:42;9.20;77.60
53695;DHT22;39588;51.124;7.190;2024-03-08T15:40:12;9.20;78.30
53695;DHT22;39588;51.124;7.190;2024-03-08T15:42:59;9.20;77.80
53695;DHT22;39588;51.124;7.190;2024-03-08T15:45:25;9.20;78.20
53695;DHT22;39588;51.124;7.190;2024-03-08T15:47:55;9.20;78.10
53695;DHT22;39588;51.124;7.190;2024-03-08T15:50:21;9.20;78.50
53695;DHT22;39588;51.124;7.190;2024-03-08T15:52:50;9.20;77.80
53695;DHT22;39588;51.124;7.190;2024-03-08T15:55:19;9.10;77.80
53695;DHT22;39588;51.124;7.190;2024-03-08T15:57:53;9.10;79.10
53695;DHT22;39588;51.124;7.190;2024-03-08T16:00:21;9.00;78.50
53695;DHT22;39588;51.124;7.190;2024-03-08T16:03:06;9.00;78.70
53695;DHT22;39588;51.124;7.190;2024-03-08T16:05:35;9.00;78.70
53695;DHT22;39588;51.124;7.190;2024-03-08T16:08:01;9.00;78.70
53695;DHT22;39588;51.124;7.190;2024-03-08T16:10:27;8.90;79.20
53695;DHT22;39588;51.124;7.190;2024-03-08T16:12:56;8.90;78.10
53695;DHT22;39588;51.124;7.190;2024-03-08T16:15:22;8.90;78.70
53695;DHT22;39588;51.124;7.190;2024-03-08T16:17:48;8.90;79.30
53695;DHT22;39588;51.124;7.190;2024-03-08T16:20:15;8.90;79.50
53695;DHT22;39588;51.124;7.190;2024-03-08T16:22:45;8.90;78.90
53695;DHT22;39588;51.124;7.190;2024-03-08T16:25:11;8.80;78.90
53695;DHT22;39588;51.124;7.190;2024-03-08T16:27:42;8.80;78.80
53695;DHT22;39588;51.124;7.190;2024-03-08T16:30:09;8.80;79.50
53695;DHT22;39588;51.124;7.190;2024-03-08T16:32:35;8.70;79.10
53695;DHT22;39588;51.124;7.190;2024-03-08T16:35:03;8.70;79.60
53695;DHT22;39588;51.124;7.190;2024-03-08T16:37:29;8.70;79.40
53695;DHT22;39588;51.124;7.190;2024-03-08T16:39:55;8.70;79.60
53695;DHT22;39588;51.124;7.190;2024-03-08T16:42:21;8.70;78.90
53695;DHT22;39588;51.124;7.190;2024-03-08T16:44:47;8.80;78.20
53695;DHT22;39588;51.124;7.190;2024-03-08T16:47:12;8.80;79.10
53695;DHT22;39588;51.124;7.190;2024-03-08T16:49:42;8.70;79.60
53695;DHT22;39588;51.124;7.190;2024-03-08T16:59:28;8.30;80.20
53695;DHT22;39588;51.124;7.190;2024-03-08T17:01:54;8.30;81.00
53695;DHT22;39588;51.124;7.190;2024-03-08T17:06:47;8.10;81.70
53695;DHT22;39588;51.124;7.190;2024-03-08T17:19:01;7.90;81.90
53695;DHT22;39588;51.124;7.190;2024-03-08T17:21:28;7.90;82.00
53695;DHT22;39588;51.124;7.190;2024-03-08T17:23:54;7.90;82.40
53695;DHT22;39588;51.124;7.190;2024-03-08T17:26:21;7.80;82.50
53695;DHT22;39588;51.124;7.190;2024-03-08T17:33:41;7.70;83.30
53695;DHT22;39588;51.124;7.190;2024-03-08T17:36:11;7.60;83.00
53695;DHT22;39588;51.124;7.190;2024-03-08T17:38:40;7.60;83.70
53695;DHT22;39588;51.124;7.190;2024-03-08T17:41:10;7.60;83.50
53695;DHT22;39588;51.124;7.190;2024-03-08T17:48:30;7.50;84.40
53695;DHT22;39588;51.124;7.190;2024-03-08T17:50:57;7.40;84.50
53695;DHT22;39588;51.124;7.190;2024-03-08T17:53:23;7.40;84.40
53695;DHT22;39588;51.124;7.190;2024-03-08T17:55:49;7.30;85.40
53695;DHT22;39588;51.124;7.190;2024-03-08T17:58:17;7.30;84.90
53695;DHT22;39588;51.124;7.190;2024-03-08T18:03:09;7.30;85.60
53695;DHT22;39588;51.124;7.190;2024-03-08T18:08:04;7.20;86.00
53695;DHT22;39588;51.124;7.190;2024-03-08T18:10:32;7.10;86.00
53695;DHT22;39588;51.124;7.190;2024-03-08T18:13:03;7.10;86.00
53695;DHT22;39588;51.124;7.190;2024-03-08T18:15:35;7.10;86.30
53695;DHT22;39588;51.124;7.190;2024-03-08T18:18:01;7.10;86.50
53695;DHT22;39588;51.124;7.190;2024-03-08T18:20:33;7.10;86.50
53695;DHT22;39588;51.124;7.190;2024-03-08T18:23:02;7.10;86.50
53695;DHT22;39588;51.124;7.190;2024-03-08T18:25:29;7.00;86.80
53695;DHT22;39588;51.124;7.190;2024-03-08T18:28:00;7.00;87.10
53695;DHT22;39588;51.124;7.190;2024-03-08T18:30:31;7.00;87.50
53695;DHT22;39588;51.124;7.190;2024-03-08T18:32:58;7.00;87.80
53695;DHT22;39588;51.124;7.190;2024-03-08T18:37:51;7.00;87.70
53695;DHT22;39588;51.124;7.190;2024-03-08T18:40:18;7.00;87.90
53695;DHT22;39588;51.124;7.190;2024-03-08T18:42:48;7.00;88.10
53695;DHT22;39588;51.124;7.190;2024-03-08T18:45:16;6.90;88.30
53695;DHT22;39588;51.124;7.190;2024-03-08T18:47:43;6.90;88.60
53695;DHT22;39588;51.124;7.190;2024-03-08T18:50:11;6.80;88.30
53695;DHT22;39588;51.124;7.190;2024-03-08T18:52:38;6.80;88.60
53695;DHT22;39588;51.124;7.190;2024-03-08T18:55:04;6.80;88.70
53695;DHT22;39588;51.124;7.190;2024-03-08T18:57:39;6.80;89.00
53695;DHT22;39588;51.124;7.190;2024-03-08T19:00:07;6.80;89.00
53695;DHT22;39588;51.124;7.190;2024-03-08T19:02:56;6.80;89.40
53695;DHT22;39588;51.124;7.190;2024-03-08T19:05:23;6.80;89.20
53695;DHT22;39588;51.124;7.190;2024-03-08T19:07:51;6.80;89.50
53695;DHT22;39588;51.124;7.190;2024-03-08T19:10:24;6.80;89.30
53695;DHT22;39588;51.124;7.190;2024-03-08T19:12:54;6.70;89.60
53695;DHT22;39588;51.124;7.190;2024-03-08T19:15:34;6.70;89.80
53695;DHT22;39588;51.124;7.190;2024-03-08T19:18:01;6.60;89.90
53695;DHT22;39588;51.124;7.190;2024-03-08T19:20:28;6.60;90.10
53695;DHT22;39588;51.124;7.190;2024-03-08T19:23:01;6.60;90.10
53695;DHT22;39588;51.124;7.190;2024-03-08T19:25:32;6.60;89.90
53695;DHT22;39588;51.124;7.190;2024-03-08T19:28:05;6.60;90.00
53695;DHT22;39588;51.124;7.190;2024-03-08T19:30:32;6.50;90.00
53695;DHT22;39588;51.124;7.190;2024-03-08T19:32:59;6.60;90.00
53695;DHT22;39588;51.124;7.190;2024-03-08T19:35:26;6.60;90.20
53695;DHT22;39588;51.124;7.190;2024-03-08T19:37:54;6.50;90.10
53695;DHT22;39588;51.124;7.190;2024-03-08T19:40:25;6.50;90.50
53695;DHT22;39588;51.124;7.190;2024-03-08T19:42:52;6.50;90.30
53695;DHT22;39588;51.124;7.190;2024-03-08T19:45:26;6.40;90.30
53695;DHT22;39588;51.124;7.190;2024-03-08T19:47:54;6.40;90.40
53695;DHT22;39588;51.124;7.190;2024-03-08T19:50:20;6.40;90.20
53695;DHT22;39588;51.124;7.190;2024-03-08T19:52:47;6.40;90.40
53695;DHT22;39588;51.124;7.190;2024-03-08T19:55:15;6.40;90.50
53695;DHT22;39588;51.124;7.190;2024-03-08T19:57:49;6.40;90.50
53695;DHT22;39588;51.124;7.190;2024-03-08T20:00:20;6.30;90.60
53695;DHT22;39588;51.124;7.190;2024-03-08T20:02:51;6.30;90.50
53695;DHT22;39588;51.124;7.190;2024-03-08T20:05:20;6.30;90.50
53695;DHT22;39588;51.124;7.190;2024-03-08T20:10:16;6.20;90.70
53695;DHT22;39588;51.124;7.190;2024-03-08T20:12:43;6.10;90.80
53695;DHT22;39588;51.124;7.190;2024-03-08T20:15:11;6.10;90.90
53695;DHT22;39588;51.124;7.190;2024-03-08T20:20:27;6.00;91.30
53695;DHT22;39588;51.124;7.190;2024-03-08T20:22:53;6.00;91.20
53695;DHT22;39588;51.124;7.190;2024-03-08T20:25:22;6.00;91.30
53695;DHT22;39588;51.124;7.190;2024-03-08T20:27:55;5.90;91.30
53695;DHT22;39588;51.124;7.190;2024-03-08T20:30:27;6.00;91.50
53695;DHT22;39588;51.124;7.190;2024-03-08T20:32:59;6.00;91.70
53695;DHT22;39588;51.124;7.190;2024-03-08T20:35:28;5.90;91.70
53695;DHT22;39588;51.124;7.190;2024-03-08T20:37:55;6.00;92.00
53695;DHT22;39588;51.124;7.190;2024-03-08T20:40:21;6.00;92.00
53695;DHT22;39588;51.124;7.190;2024-03-08T20:42:54;6.00;92.20
53695;DHT22;39588;51.124;7.190;2024-03-08T20:48:43;6.00;92.50
53695;DHT22;39588;51.124;7.190;2024-03-08T20:53:38;6.00;92.80
53695;DHT22;39588;51.124;7.190;2024-03-08T20:56:06;5.90;92.90
53695;DHT22;39588;51.124;7.190;2024-03-08T20:58:32;5.90;93.00
53695;DHT22;39588;51.124;7.190;2024-03-08T21:03:24;5.90;93.20
53695;DHT22;39588;51.124;7.190;2024-03-08T21:05:53;5.90;93.20
53695;DHT22;39588;51.124;7.190;2024-03-08T21:08:20;5.90;93.20
53695;DHT22;39588;51.124;7.190;2024-03-08T21:10:50;5.90;93.30
53695;DHT22;39588;51.124;7.190;2024-03-08T21:13:19;5.90;93.30
53695;DHT22;39588;51.124;7.190;2024-03-08T21:15:50;5.90;93.40
53695;DHT22;39588;51.124;7.190;2024-03-08T21:18:15;5.90;93.40
53695;DHT22;39588;51.124;7.190;2024-03-08T21:20:41;5.90;93.30
53695;DHT22;39588;51.124;7.190;2024-03-08T21:23:08;5.90;93.50
53695;DHT22;39588;51.124;7.190;2024-03-08T21:25:36;5.90;93.40
53695;DHT22;39588;51.124;7.190;2024-03-08T21:28:03;5.90;93.40
53695;DHT22;39588;51.124;7.190;2024-03-08T21:30:34;5.90;93.40
53695;DHT22;39588;51.124;7.190;2024-03-08T21:33:00;5.90;93.40
53695;DHT22;39588;51.124;7.190;2024-03-08T21:35:28;5.90;93.60
53695;DHT22;39588;51.124;7.190;2024-03-08T21:37:56;5.90;93.50
53695;DHT22;39588;51.124;7.190;2024-03-08T21:40:22;5.90;93.50
53695;DHT22;39588;51.124;7.190;2024-03-08T21:42:53;5.80;93.40
53695;DHT22;39588;51.124;7.190;2024-03-08T21:45:20;5.80;93.60
53695;DHT22;39588;51.124;7.190;2024-03-08T21:47:48;5.80;93.50
53695;DHT22;39588;51.124;7.190;2024-03-08T21:50:17;5.80;93.50
53695;DHT22;39588;51.124;7.190;2024-03-08T21:52:44;5.80;93.60